createdAt,value
2022-09-20T00:01:11.025Z,9.43
2022-09-20T00:03:43.923Z,10.52
2022-09-20T00:06:16.423Z,9.05
2022-09-20T00:08:43.276Z,9.13
2022-09-20T00:11:15.487Z,9.52
2022-09-20T00:13:45.285Z,9.40
2022-09-20T00:16:15.137Z,8.38
2022-09-20T00:18:42.944Z,8.07
2022-09-20T00:21:17.180Z,8.95
2022-09-20T00:23:44.852Z,7.97
2022-09-20T00:26:11.961Z,8.85
2022-09-20T00:28:38.817Z,7.72
2022-09-20T00:31:05.666Z,8.73
2022-09-20T00:33:51.625Z,8.02
2022-09-20T00:36:18.318Z,8.25
2022-09-20T00:38:45.738Z,9.15
2022-09-20T00:41:12.848Z,8.82
2022-09-20T00:43:44.933Z,8.90
2022-09-20T00:46:38.020Z,8.80
2022-09-20T00:49:20.505Z,8.75
2022-09-20T00:51:55.733Z,9.05
2022-09-20T00:54:25.499Z,8.40
2022-09-20T00:56:52.501Z,8.80
2022-09-20T00:59:34.474Z,7.85
2022-09-20T01:02:17.138Z,7.97
2022-09-20T01:04:45.148Z,6.97
2022-09-20T01:07:16.138Z,6.90
2022-09-20T01:09:42.989Z,7.47
2022-09-20T01:12:15.019Z,7.40
2022-09-20T01:14:44.140Z,7.95
2022-09-20T01:17:12.881Z,7.57
2022-09-20T01:20:13.510Z,6.68
2022-09-20T01:22:46.256Z,7.53
2022-09-20T01:25:25.847Z,7.35
2022-09-20T01:27:53.989Z,6.95
2022-09-20T01:30:24.836Z,6.78
2022-09-20T01:32:57.336Z,6.50
2022-09-20T01:35:26.952Z,7.78
2022-09-20T01:37:59.464Z,7.75
2022-09-20T01:40:31.272Z,7.20
2022-09-20T01:43:07.061Z,6.93
2022-09-20T01:48:17.338Z,6.55
2022-09-20T01:50:56.106Z,6.82
2022-09-20T01:53:53.892Z,6.72
2022-09-20T01:56:29.190Z,6.80
2022-09-20T01:59:24.913Z,7.32
2022-09-20T02:02:13.468Z,6.40
2022-09-20T02:05:05.907Z,5.85
2022-09-20T02:07:52.460Z,5.45
2022-09-20T02:10:51.830Z,6.35
2022-09-20T02:13:29.746Z,6.50
2022-09-20T02:16:16.036Z,6.03
2022-09-20T02:19:01.616Z,6.13
2022-09-20T02:21:37.888Z,5.63
2022-09-20T02:24:31.471Z,6.20
2022-09-20T02:27:23.258Z,6.30
2022-09-20T02:30:18.823Z,6.25
2022-09-20T02:33:13.887Z,6.00
2022-09-20T02:36:28.376Z,6.63
2022-09-20T02:39:03.335Z,5.80
2022-09-20T02:41:38.951Z,6.68
2022-09-20T02:44:34.533Z,5.85
2022-09-20T02:47:13.010Z,6.18
2022-09-20T02:50:13.325Z,6.03
2022-09-20T02:53:18.261Z,5.90
2022-09-20T02:56:17.515Z,5.97
2022-09-20T02:58:47.526Z,5.50
2022-09-20T03:01:31.190Z,5.70
2022-09-20T03:04:23.432Z,6.60
2022-09-20T03:07:04.021Z,5.65
2022-09-20T03:09:49.606Z,5.88
2022-09-20T03:12:19.215Z,5.07
2022-09-20T03:15:28.921Z,5.50
2022-09-20T03:18:04.640Z,5.88
2022-09-20T03:23:38.226Z,5.43
2022-09-20T03:26:31.917Z,5.38
2022-09-20T03:29:36.230Z,5.03
2022-09-20T03:32:08.917Z,5.47
2022-09-20T03:35:03.068Z,5.10
2022-09-20T03:37:38.837Z,4.75
2022-09-20T03:42:48.310Z,4.70
2022-09-20T03:45:33.266Z,4.85
2022-09-20T03:48:08.595Z,5.28
2022-09-20T03:50:51.400Z,5.10
2022-09-20T03:53:58.504Z,4.63
2022-09-20T03:59:36.511Z,4.60
2022-09-20T04:02:37.580Z,5.20
2022-09-20T04:05:12.348Z,4.72
2022-09-20T04:08:14.057Z,4.97
2022-09-20T04:11:11.545Z,4.45
2022-09-20T04:13:44.285Z,4.22
2022-09-20T04:16:31.205Z,5.13
2022-09-20T04:19:12.666Z,4.30
2022-09-20T04:21:48.614Z,4.13
2022-09-20T04:24:31.563Z,4.20
2022-09-20T04:27:09.544Z,4.00
2022-09-20T04:29:56.314Z,4.20
2022-09-20T04:32:41.122Z,4.57
2022-09-20T04:36:04.420Z,4.65
2022-09-20T04:38:31.630Z,4.38
2022-09-20T04:41:27.972Z,4.05
2022-09-20T04:44:40.297Z,4.40
2022-09-20T04:47:38.367Z,3.90
2022-09-20T04:50:42.894Z,4.50
2022-09-20T04:53:21.944Z,3.80
2022-09-20T04:55:52.981Z,3.90
2022-09-20T04:58:33.209Z,4.45
2022-09-20T05:01:17.155Z,3.80
2022-09-20T05:04:02.339Z,4.25
2022-09-20T05:06:43.525Z,3.65
2022-09-20T05:09:29.710Z,3.80
2022-09-20T05:15:22.969Z,3.70
2022-09-20T05:18:18.128Z,4.65
2022-09-20T05:21:05.044Z,4.15
2022-09-20T05:23:50.932Z,3.90
2022-09-20T05:26:29.888Z,5.07
2022-09-20T05:29:25.286Z,4.90
2022-09-20T05:32:21.487Z,4.00
2022-09-20T05:35:16.884Z,3.97
2022-09-20T05:37:52.159Z,4.20
2022-09-20T05:40:38.794Z,4.10
2022-09-20T05:43:31.809Z,5.38
2022-09-20T05:46:07.385Z,4.72
2022-09-20T05:48:58.760Z,6.28
2022-09-20T05:52:00.714Z,4.00
2022-09-20T05:55:07.910Z,4.00
2022-09-20T05:58:20.364Z,3.25
2022-09-20T06:00:59.932Z,2.33
2022-09-20T06:03:45.969Z,2.67
2022-09-20T06:06:38.503Z,2.60
2022-09-20T06:09:26.178Z,2.67
2022-09-20T06:12:23.721Z,2.03
2022-09-20T06:15:17.180Z,2.58
2022-09-20T06:17:54.236Z,3.10
2022-09-20T06:20:57.608Z,2.72
2022-09-20T06:23:26.573Z,3.00
2022-09-20T06:25:59.847Z,2.65
2022-09-20T06:28:40.424Z,2.67
2022-09-20T06:31:09.147Z,2.67
2022-09-20T06:33:47.401Z,2.47
2022-09-20T06:36:57.533Z,2.63
2022-09-20T06:40:01.654Z,2.10
2022-09-20T06:42:29.610Z,2.47
2022-09-20T06:44:56.512Z,2.85
2022-09-20T06:47:23.354Z,2.95
2022-09-20T06:49:50.475Z,3.92
2022-09-20T06:52:22.911Z,4.68
2022-09-20T06:54:53.888Z,4.30
2022-09-20T06:57:29.520Z,5.13
2022-09-20T06:59:56.376Z,4.88
2022-09-20T07:02:23.151Z,5.22
2022-09-20T07:04:50.468Z,4.35
2022-09-20T07:07:20.609Z,4.72
2022-09-20T07:09:48.217Z,4.38
2022-09-20T07:12:14.880Z,4.28
2022-09-20T07:14:42.684Z,4.65
2022-09-20T07:17:09.450Z,4.80
2022-09-20T07:19:36.753Z,5.00
2022-09-20T07:22:03.528Z,4.28
2022-09-20T07:24:32.352Z,5.15
2022-09-20T07:27:05.270Z,4.93
2022-09-20T07:29:32.164Z,5.00
2022-09-20T07:31:58.955Z,4.20
2022-09-20T07:34:26.331Z,5.25
2022-09-20T07:36:53.125Z,5.00
2022-09-20T07:39:20.092Z,4.63
2022-09-20T07:41:50.619Z,5.35
2022-09-20T07:44:22.038Z,5.53
2022-09-20T07:46:55.104Z,5.03
2022-09-20T07:49:22.697Z,5.07
2022-09-20T07:51:53.502Z,4.80
2022-09-20T07:54:20.937Z,5.05
2022-09-20T07:56:48.232Z,4.38
2022-09-20T07:59:15.511Z,4.75
2022-09-20T08:01:43.183Z,4.55
2022-09-20T08:04:11.122Z,4.50
2022-09-20T08:06:42.321Z,4.60
2022-09-20T08:09:11.315Z,5.00
2022-09-20T08:11:39.774Z,4.80
2022-09-20T08:14:08.875Z,5.10
2022-09-20T08:16:41.755Z,4.88
2022-09-20T08:19:09.647Z,4.40
2022-09-20T08:21:38.330Z,4.70
2022-09-20T08:24:05.258Z,4.30
2022-09-20T08:26:32.247Z,5.10
2022-09-20T08:29:00.322Z,5.25
2022-09-20T08:31:34.459Z,4.70
2022-09-20T08:34:04.899Z,4.78
2022-09-20T08:36:36.435Z,5.13
2022-09-20T08:42:28.135Z,4.57
2022-09-20T08:45:01.879Z,4.65
2022-09-20T08:47:35.865Z,4.90
2022-09-20T08:50:10.011Z,4.93
2022-09-20T08:52:40.704Z,4.95
2022-09-20T08:55:36.456Z,4.70
2022-09-20T08:58:08.118Z,4.72
2022-09-20T09:00:37.358Z,4.72
2022-09-20T09:03:16.949Z,5.18
2022-09-20T09:05:46.728Z,4.28
2022-09-20T09:08:21.229Z,4.90
2022-09-20T09:11:09.596Z,4.28
2022-09-20T09:14:04.513Z,4.20
2022-09-20T09:16:35.724Z,4.68
2022-09-20T09:19:34.323Z,4.43
2022-09-20T09:22:04.070Z,3.90
2022-09-20T09:24:31.924Z,4.50
2022-09-20T09:27:16.807Z,4.15
2022-09-20T09:29:55.389Z,4.03
2022-09-20T09:32:29.070Z,4.40
2022-09-20T09:34:57.318Z,4.35
2022-09-20T09:37:33.775Z,3.83
2022-09-20T09:40:09.756Z,3.92
2022-09-20T09:42:36.598Z,3.97
2022-09-20T09:45:27.099Z,4.22
2022-09-20T09:47:55.016Z,3.88
2022-09-20T09:50:28.156Z,4.57
2022-09-20T09:53:00.335Z,4.22
2022-09-20T09:55:49.182Z,4.18
2022-09-20T09:58:39.996Z,4.22
2022-09-20T10:01:20.102Z,3.65
2022-09-20T10:04:06.608Z,4.20
2022-09-20T10:06:59.351Z,3.28
2022-09-20T10:10:10.397Z,3.80
2022-09-20T10:13:08.952Z,3.58
2022-09-20T10:15:44.792Z,3.75
2022-09-20T10:18:25.337Z,3.63
2022-09-20T10:21:07.962Z,4.05
2022-09-20T10:24:03.309Z,3.40
2022-09-20T10:26:53.483Z,4.03
2022-09-20T10:29:34.049Z,5.70
2022-09-20T10:32:19.006Z,6.05
2022-09-20T10:35:22.289Z,5.35
2022-09-20T10:38:23.664Z,5.43
2022-09-20T10:41:54.473Z,5.38
2022-09-20T10:44:46.786Z,5.57
2022-09-20T10:47:20.481Z,6.45
2022-09-20T10:50:18.139Z,6.10
2022-09-20T10:53:06.811Z,5.63
2022-09-20T10:56:04.230Z,9.27
2022-09-20T10:58:43.845Z,27.88
2022-09-20T11:01:23.382Z,34.17
2022-09-20T11:03:52.984Z,32.63
2022-09-20T11:06:51.719Z,32.17
2022-09-20T11:09:22.333Z,28.35
2022-09-20T11:12:39.505Z,24.25
2022-09-20T11:15:17.424Z,23.42
2022-09-20T11:18:04.660Z,22.23
2022-09-20T11:20:44.205Z,19.17
2022-09-20T11:23:21.001Z,18.73
2022-09-20T11:25:53.956Z,16.55
2022-09-20T11:28:31.678Z,16.52
2022-09-20T11:31:10.937Z,14.80
2022-09-20T11:33:41.939Z,14.77
2022-09-20T11:36:19.191Z,11.38
2022-09-20T11:38:55.397Z,10.63
2022-09-20T11:41:30.767Z,10.68
2022-09-20T11:44:11.682Z,9.88
2022-09-20T11:47:02.805Z,9.45
2022-09-20T11:49:40.538Z,9.75
2022-09-20T11:52:26.012Z,11.95
2022-09-20T11:55:00.583Z,11.43
2022-09-20T11:57:28.384Z,13.77
2022-09-20T11:59:57.357Z,13.75
2022-09-20T12:02:28.407Z,13.82
2022-09-20T12:04:55.891Z,13.52
2022-09-20T12:07:39.696Z,13.82
2022-09-20T12:10:20.410Z,13.35
2022-09-20T12:12:55.025Z,12.65
2022-09-20T12:15:22.029Z,12.65
2022-09-20T12:17:49.634Z,11.90
2022-09-20T12:20:34.957Z,11.38
2022-09-20T12:23:39.115Z,11.25
2022-09-20T12:26:18.737Z,11.52
2022-09-20T12:28:49.951Z,10.55
2022-09-20T12:31:19.857Z,11.38
2022-09-20T12:33:59.904Z,10.88
2022-09-20T12:36:32.933Z,9.55
2022-09-20T12:39:26.355Z,9.10
2022-09-20T12:41:58.608Z,15.00
2022-09-20T12:44:44.084Z,15.77
2022-09-20T12:47:10.816Z,14.60
2022-09-20T12:50:05.273Z,13.15
2022-09-20T12:53:02.453Z,10.15
2022-09-20T12:55:55.339Z,8.55
2022-09-20T12:58:46.928Z,7.50
2022-09-20T13:01:14.743Z,5.97
2022-09-20T13:03:43.392Z,5.72
2022-09-20T13:06:13.295Z,6.47
2022-09-20T13:08:57.436Z,5.93
2022-09-20T13:11:40.781Z,5.32
2022-09-20T13:14:23.748Z,6.07
2022-09-20T13:17:02.839Z,5.07
2022-09-20T13:19:34.641Z,4.90
2022-09-20T13:22:06.156Z,5.93
2022-09-20T13:24:38.415Z,5.60
2022-09-20T13:27:24.518Z,5.97
2022-09-20T13:32:29.810Z,5.07
2022-09-20T13:35:14.996Z,5.50
2022-09-20T13:37:57.204Z,5.20
2022-09-20T13:40:34.121Z,5.25
2022-09-20T13:43:22.540Z,5.00
2022-09-20T13:45:55.616Z,5.70
2022-09-20T13:48:29.254Z,5.10
2022-09-20T13:50:57.310Z,5.28
2022-09-20T13:53:42.953Z,5.18
2022-09-20T13:56:17.807Z,4.82
2022-09-20T13:58:46.079Z,5.77
2022-09-20T14:01:35.184Z,5.20
2022-09-20T14:04:13.225Z,5.20
2022-09-20T14:06:43.364Z,5.18
2022-09-20T14:09:23.936Z,5.88
2022-09-20T14:11:50.956Z,6.35
2022-09-20T14:14:22.305Z,6.32
2022-09-20T14:16:50.721Z,5.75
2022-09-20T14:19:20.942Z,5.88
2022-09-20T14:21:48.676Z,5.63
2022-09-20T14:24:46.832Z,5.78
2022-09-20T14:27:19.809Z,4.88
2022-09-20T14:29:53.801Z,5.32
2022-09-20T14:32:24.996Z,5.50
2022-09-20T14:34:58.457Z,6.53
2022-09-20T14:37:29.568Z,5.57
2022-09-20T14:39:58.483Z,6.20
2022-09-20T14:43:04.144Z,6.53
2022-09-20T14:45:37.223Z,5.70
2022-09-20T14:48:11.034Z,6.72
2022-09-20T14:50:44.083Z,7.30
2022-09-20T14:53:13.872Z,6.13
2022-09-20T14:55:55.115Z,6.43
2022-09-20T14:58:22.086Z,6.90
2022-09-20T15:01:20.999Z,6.07
2022-09-20T15:03:47.724Z,6.60
2022-09-20T15:06:14.514Z,6.38
2022-09-20T15:08:46.746Z,6.90
2022-09-20T15:11:18.406Z,7.10
2022-09-20T15:13:48.584Z,5.80
2022-09-20T15:16:18.456Z,6.40
2022-09-20T15:18:49.441Z,6.32
2022-09-20T15:21:16.147Z,6.95
2022-09-20T15:23:45.325Z,6.10
2022-09-20T15:26:14.083Z,6.20
2022-09-20T15:28:41.203Z,6.68
2022-09-20T15:31:10.139Z,6.53
2022-09-20T15:33:37.124Z,6.55
2022-09-20T15:36:06.891Z,7.30
2022-09-20T15:38:34.535Z,7.78
2022-09-20T15:41:04.199Z,7.07
2022-09-20T15:43:31.671Z,5.50
2022-09-20T15:46:01.869Z,6.47
2022-09-20T15:48:30.566Z,7.32
2022-09-20T15:51:02.387Z,6.32
2022-09-20T15:53:37.682Z,6.63
2022-09-20T15:56:15.432Z,8.25
2022-09-20T15:58:47.246Z,7.47
2022-09-20T16:01:16.669Z,6.78
2022-09-20T16:03:46.940Z,6.80
2022-09-20T16:06:14.302Z,7.00
2022-09-20T16:08:43.246Z,6.07
2022-09-20T16:11:19.265Z,6.25
2022-09-20T16:13:57.522Z,6.32
2022-09-20T16:19:12.056Z,5.93
2022-09-20T16:21:41.539Z,6.53
2022-09-20T16:24:09.603Z,6.18
2022-09-20T16:26:36.776Z,6.25
2022-09-20T16:29:07.677Z,6.22
2022-09-20T16:31:36.797Z,6.78
2022-09-20T16:34:06.202Z,5.97
2022-09-20T16:36:33.645Z,5.40
2022-09-20T16:39:01.184Z,5.53
2022-09-20T16:41:28.977Z,6.05
2022-09-20T16:43:56.851Z,5.72
2022-09-20T16:46:27.493Z,5.55
2022-09-20T16:48:56.882Z,5.28
2022-09-20T16:51:26.872Z,6.10
2022-09-20T16:53:54.912Z,5.97
2022-09-20T16:56:28.860Z,5.28
2022-09-20T16:58:56.652Z,5.05
2022-09-20T17:01:23.977Z,6.07
2022-09-20T17:03:52.035Z,4.90
2022-09-20T17:06:19.658Z,6.15
2022-09-20T17:08:48.805Z,5.70
2022-09-20T17:11:25.818Z,5.28
2022-09-20T17:13:54.376Z,5.43
2022-09-20T17:16:36.033Z,5.38
2022-09-20T17:19:12.297Z,5.68
2022-09-20T17:21:44.022Z,4.68
2022-09-20T17:24:11.210Z,5.25
2022-09-20T17:26:41.169Z,4.75
2022-09-20T17:29:13.413Z,4.60
2022-09-20T17:31:44.163Z,4.45
2022-09-20T17:34:13.155Z,5.30
2022-09-20T17:36:47.642Z,4.95
2022-09-20T17:39:16.462Z,4.43
2022-09-20T17:41:46.165Z,5.15
2022-09-20T17:44:14.253Z,5.10
2022-09-20T17:46:46.271Z,4.50
2022-09-20T17:49:16.465Z,4.70
2022-09-20T17:51:46.670Z,4.93
2022-09-20T17:54:14.585Z,5.07
2022-09-20T17:56:49.700Z,4.95
2022-09-20T17:59:18.714Z,5.05
2022-09-20T18:01:48.402Z,6.10
2022-09-20T18:04:16.003Z,6.18
2022-09-20T18:06:47.415Z,6.63
2022-09-20T18:09:16.937Z,5.97
2022-09-20T18:11:48.770Z,5.40
2022-09-20T18:14:21.435Z,5.68
2022-09-20T18:16:52.685Z,5.35
2022-09-20T18:19:22.987Z,5.53
2022-09-20T18:22:02.832Z,5.10
2022-09-20T18:24:31.200Z,5.13
2022-09-20T18:27:00.635Z,6.15
2022-09-20T18:29:28.998Z,5.30
2022-09-20T18:31:56.931Z,5.32
2022-09-20T18:34:27.235Z,5.45
2022-09-20T18:36:57.697Z,5.82
2022-09-20T18:39:29.701Z,4.88
2022-09-20T18:42:03.820Z,5.30
2022-09-20T18:44:33.696Z,4.85
2022-09-20T18:47:02.998Z,4.90
2022-09-20T18:49:33.331Z,4.38
2022-09-20T18:52:00.980Z,4.53
2022-09-20T18:54:33.639Z,4.68
2022-09-20T18:57:02.717Z,4.75
2022-09-20T18:59:30.732Z,4.90
2022-09-20T19:02:24.210Z,4.45
2022-09-20T19:05:21.714Z,3.90
2022-09-20T19:08:03.020Z,4.13
2022-09-20T19:10:57.809Z,4.57
2022-09-20T19:13:39.439Z,4.60
2022-09-20T19:16:11.998Z,5.07
2022-09-20T19:19:18.854Z,3.95
2022-09-20T19:21:56.621Z,5.13
2022-09-20T19:24:48.571Z,4.95
2022-09-20T19:27:16.240Z,4.43
2022-09-20T19:29:44.921Z,4.45
2022-09-20T19:32:17.792Z,4.28
2022-09-20T19:34:46.545Z,4.68
2022-09-20T19:37:35.381Z,4.95
2022-09-20T19:40:24.944Z,4.55
2022-09-20T19:43:46.880Z,4.28
2022-09-20T19:46:28.418Z,3.80
2022-09-20T19:49:23.402Z,4.80
2022-09-20T19:51:51.636Z,4.55
2022-09-20T19:54:20.262Z,4.45
2022-09-20T19:56:59.842Z,4.68
2022-09-20T19:59:28.586Z,4.68
2022-09-20T20:01:58.003Z,4.50
2022-09-20T20:04:26.099Z,4.80
2022-09-20T20:07:02.131Z,4.22
2022-09-20T20:09:55.422Z,4.20
2022-09-20T20:12:40.949Z,4.47
2022-09-20T20:15:28.642Z,4.40
2022-09-20T20:17:59.069Z,4.63
2022-09-20T20:20:40.993Z,4.10
2022-09-20T20:23:13.525Z,4.22
2022-09-20T20:25:52.229Z,4.32
2022-09-20T20:28:19.023Z,4.20
2022-09-20T20:30:45.862Z,3.80
2022-09-20T20:33:16.409Z,4.03
2022-09-20T20:35:43.360Z,4.68
2022-09-20T20:38:11.714Z,4.50
2022-09-20T20:40:39.158Z,4.70
2022-09-20T20:43:06.304Z,4.88
2022-09-20T20:45:33.486Z,5.35
2022-09-20T20:48:00.618Z,4.35
2022-09-20T20:50:28.137Z,4.70
2022-09-20T20:52:56.318Z,4.43
2022-09-20T20:55:26.708Z,4.63
2022-09-20T20:57:58.168Z,4.90
2022-09-20T21:00:26.285Z,3.30
2022-09-20T21:03:00.529Z,4.65
2022-09-20T21:05:30.792Z,3.90
2022-09-20T21:07:58.693Z,4.28
2022-09-20T21:10:25.862Z,4.20
2022-09-20T21:12:55.681Z,4.35
2022-09-20T21:15:22.457Z,4.63
2022-09-20T21:17:53.251Z,4.07
2022-09-20T21:20:21.929Z,4.60
2022-09-20T21:22:48.989Z,5.60
2022-09-20T21:25:15.842Z,5.03
2022-09-20T21:27:42.821Z,4.00
2022-09-20T21:30:09.992Z,4.20
2022-09-20T21:32:36.821Z,5.03
2022-09-20T21:35:03.744Z,4.70
2022-09-20T21:37:30.572Z,4.45
2022-09-20T21:39:57.748Z,4.53
2022-09-20T21:42:27.585Z,4.43
2022-09-20T21:44:54.658Z,4.97
2022-09-20T21:47:21.631Z,5.13
2022-09-20T21:49:48.487Z,5.10
2022-09-20T21:52:15.635Z,4.35
2022-09-20T21:54:47.422Z,4.32
2022-09-20T21:57:15.348Z,4.15
2022-09-20T21:59:42.380Z,4.43
2022-09-20T22:02:11.173Z,4.15
2022-09-20T22:04:38.529Z,4.68
2022-09-20T22:07:05.437Z,4.57
2022-09-20T22:09:33.241Z,4.57
2022-09-20T22:12:00.786Z,4.30
2022-09-20T22:14:28.963Z,3.95
2022-09-20T22:16:56.022Z,4.30
2022-09-20T22:19:27.276Z,3.80
2022-09-20T22:21:55.127Z,4.80
2022-09-20T22:24:22.371Z,3.95
2022-09-20T22:26:51.492Z,3.92
2022-09-20T22:29:18.957Z,3.78
2022-09-20T22:31:52.533Z,3.55
2022-09-20T22:34:21.988Z,3.72
2022-09-20T22:36:50.940Z,3.80
2022-09-20T22:39:18.770Z,3.70
2022-09-20T22:41:48.852Z,4.10
2022-09-20T22:44:16.537Z,3.30
2022-09-20T22:46:43.839Z,4.13
2022-09-20T22:49:11.200Z,3.70
2022-09-20T22:51:38.556Z,4.38
2022-09-20T22:54:11.770Z,3.63
2022-09-20T22:56:41.506Z,3.50
2022-09-20T22:59:11.286Z,3.85
2022-09-20T23:01:47.001Z,3.70
2022-09-20T23:06:51.982Z,3.63
2022-09-20T23:09:19.513Z,4.20
2022-09-20T23:11:47.350Z,3.47
2022-09-20T23:14:18.413Z,4.25
2022-09-20T23:16:46.970Z,3.88
2022-09-20T23:19:21.993Z,3.63
2022-09-20T23:21:52.773Z,3.70
2022-09-20T23:24:24.282Z,3.67
2022-09-20T23:26:52.552Z,3.65
2022-09-20T23:29:19.927Z,3.40
2022-09-20T23:31:48.359Z,3.53
2022-09-20T23:34:18.134Z,3.17
2022-09-20T23:36:45.539Z,4.00
2022-09-20T23:39:14.819Z,3.85
2022-09-20T23:41:46.944Z,3.17
2022-09-20T23:44:15.932Z,3.70
2022-09-20T23:46:43.233Z,3.67
2022-09-20T23:49:10.626Z,3.33
2022-09-20T23:51:38.476Z,3.70
2022-09-20T23:54:06.910Z,3.88
2022-09-20T23:56:35.124Z,3.50
2022-09-20T23:59:02.460Z,3.58
